Time;durP1;ratioP1;P1;durP2;ratioP2;P2;SDS_P1;SDS_P2;PMS_P1;PMS_P2;Temp;Humidity;BMP_temperature;BMP_pressure;BME280_temperature;BME280_humidity;BME280_pressure;Samples;Min_cycle;Max_cycle;Signal;HPM_P1;HPM_P2
2022/11/24 00:01:17;;;;;;;92.20;40.50;;;;;;;1.73;100.00;100066.44;5072892;28;20064;-81
2022/11/24 00:03:53;;;;;;;82.33;37.17;;;;;;;1.77;100.00;100061.25;5089108;28;20064;-81
2022/11/24 00:06:19;;;;;;;78.97;37.80;;;;;;;1.76;100.00;100063.81;5070220;28;20040;-79
2022/11/24 00:08:47;;;;;;;90.50;38.97;;;;;;;1.68;100.00;100062.06;5064488;28;20051;-79
2022/11/24 00:11:16;;;;;;;93.93;41.07;;;;;;;1.80;100.00;100065.59;5061333;28;20480;-80
2022/11/24 00:13:43;;;;;;;86.77;37.80;;;;;;;1.80;100.00;100055.19;5061175;28;20120;-79
2022/11/24 00:16:14;;;;;;;91.93;38.47;;;;;;;1.85;100.00;100056.97;5061677;28;20516;-80
2022/11/24 00:18:43;;;;;;;79.07;36.60;;;;;;;1.78;100.00;100057.78;5080121;28;20059;-80
2022/11/24 00:21:10;;;;;;;85.20;39.17;;;;;;;1.88;100.00;100058.69;5060832;28;20468;-81
2022/11/24 00:23:37;;;;;;;84.83;36.57;;;;;;;1.84;100.00;100063.00;5077523;28;20056;-80
2022/11/24 00:26:04;;;;;;;82.27;35.30;;;;;;;1.77;100.00;100058.66;5029276;28;20040;-79
2022/11/24 00:28:32;;;;;;;76.77;33.80;;;;;;;1.71;100.00;100058.59;5047992;28;20059;-80
2022/11/24 00:31:00;;;;;;;76.10;35.53;;;;;;;1.71;100.00;100060.34;5043446;28;20398;-79
2022/11/24 00:33:26;;;;;;;81.93;36.23;;;;;;;1.78;100.00;100069.94;5078803;28;20123;-79
2022/11/24 00:35:56;;;;;;;85.37;37.10;;;;;;;1.84;100.00;100059.53;5055454;28;20044;-79
2022/11/24 00:38:23;;;;;;;79.97;34.57;;;;;;;1.75;100.00;100062.09;5039648;28;20047;-81
2022/11/24 00:40:50;;;;;;;82.17;34.00;;;;;;;1.85;100.00;100071.69;5061595;28;20480;-78
2022/11/24 00:43:18;;;;;;;76.07;34.53;;;;;;;1.81;100.00;100064.75;5041505;28;20032;-79
2022/11/24 00:45:44;;;;;;;74.77;34.37;;;;;;;1.73;100.00;100064.69;5035218;28;20527;-80
2022/11/24 00:48:14;;;;;;;77.10;34.30;;;;;;;1.71;100.00;100069.03;5055952;28;20131;-79
2022/11/24 00:50:40;;;;;;;79.13;35.43;;;;;;;1.74;100.00;100068.16;5059080;28;20041;-79
2022/11/24 00:53:07;;;;;;;78.67;33.60;;;;;;;1.74;100.00;100076.84;5059039;28;20041;-79
2022/11/24 00:55:34;;;;;;;77.47;34.77;;;;;;;1.65;100.00;100071.59;5059547;28;20040;-79
2022/11/24 00:58:01;;;;;;;84.97;36.47;;;;;;;1.68;100.00;100074.19;5043513;28;20127;-80
2022/11/24 01:00:28;;;;;;;83.10;36.73;;;;;;;1.70;100.00;100064.69;5042520;28;20041;-79
2022/11/24 01:02:55;;;;;;;87.43;37.03;;;;;;;1.78;100.00;100073.41;5053851;28;20130;-81
2022/11/24 01:05:26;;;;;;;80.23;33.70;;;;;;;1.62;100.00;100080.25;5025894;28;20037;-80
2022/11/24 01:07:52;;;;;;;75.83;34.33;;;;;;;1.70;100.00;100075.09;5051938;28;20051;-80
2022/11/24 01:10:20;;;;;;;79.97;34.53;;;;;;;1.68;100.00;100074.19;5042679;22;20045;-84
2022/11/24 01:12:47;;;;;;;86.53;35.93;;;;;;;1.63;100.00;100071.59;5047415;28;20038;-83
2022/11/24 01:15:13;;;;;;;84.03;35.67;;;;;;;1.72;100.00;100067.28;5015583;28;20044;-84
2022/11/24 01:17:40;;;;;;;84.63;37.53;;;;;;;1.65;100.00;100062.03;5002608;28;20049;-83
2022/11/24 01:20:08;;;;;;;77.57;35.27;;;;;;;1.63;100.00;100066.38;5056719;28;20063;-83
2022/11/24 01:22:34;;;;;;;78.57;35.27;;;;;;;1.68;100.00;100062.06;5036929;28;20078;-83
2022/11/24 01:25:01;;;;;;;84.50;36.43;;;;;;;1.57;100.00;100063.72;5057060;28;20444;-84
2022/11/24 01:27:28;;;;;;;78.77;35.43;;;;;;;1.75;100.00;100064.69;5046803;28;20048;-85
2022/11/24 01:29:54;;;;;;;66.07;32.73;;;;;;;1.65;100.00;100062.03;5045850;28;20500;-84
2022/11/24 01:32:21;;;;;;;75.67;33.63;;;;;;;1.73;100.00;100064.69;5041103;28;20063;-84
2022/11/24 01:34:48;;;;;;;74.67;33.47;;;;;;;1.64;100.00;100060.31;5041589;28;20098;-86
2022/11/24 01:37:14;;;;;;;81.37;32.87;;;;;;;1.73;100.00;100069.03;5039824;28;20040;-84
2022/11/24 01:39:41;;;;;;;73.30;34.00;;;;;;;1.77;100.00;100065.59;5056258;28;20036;-84
2022/11/24 01:42:08;;;;;;;75.57;35.40;;;;;;;1.73;100.00;100069.91;5039165;28;20048;-85
2022/11/24 01:44:34;;;;;;;75.63;32.47;;;;;;;1.54;100.00;100073.25;5039815;28;20049;-85
2022/11/24 01:47:06;;;;;;;77.13;32.70;;;;;;;1.51;100.00;100068.88;5055000;28;20036;-84
2022/11/24 01:49:40;;;;;;;80.03;35.47;;;;;;;1.53;100.00;100066.31;5054192;28;20449;-84
2022/11/24 01:52:15;;;;;;;71.43;32.33;;;;;;;1.68;100.00;100074.19;5057723;28;20044;-85
2022/11/24 01:54:43;;;;;;;;;;;;;;;1.64;100.00;100073.31;5045658;28;20064;-85
2022/11/24 01:57:24;;;;;;;78.30;33.03;;;;;;;1.55;100.00;100070.66;5034633;28;19920;-84
2022/11/24 01:59:55;;;;;;;77.50;34.30;;;;;;;1.64;100.00;100065.50;5046988;28;20041;-85
2022/11/24 02:02:22;;;;;;;83.27;35.60;;;;;;;1.73;100.00;100079.44;5066889;28;20037;-85
2022/11/24 02:04:49;;;;;;;76.80;33.67;;;;;;;1.67;100.00;100078.53;5034535;28;20033;-86
2022/11/24 02:07:16;;;;;;;74.73;33.53;;;;;;;1.81;100.00;100089.03;5036273;28;20493;-86
2022/11/24 02:09:50;;;;;;;72.00;31.40;;;;;;;1.62;100.00;100090.66;5070418;28;20035;-85
2022/11/24 02:12:16;;;;;;;78.80;34.80;;;;;;;1.59;100.00;100087.16;5037020;28;20048;-85
2022/11/24 02:14:43;;;;;;;77.40;33.23;;;;;;;1.55;100.00;100081.06;5037305;28;20086;-85
2022/11/24 02:17:10;;;;;;;74.00;33.00;;;;;;;1.75;100.00;100075.97;5066148;28;20402;-84
2022/11/24 02:19:47;;;;;;;70.93;32.17;;;;;;;1.61;100.00;100088.94;5052691;28;20044;-85
2022/11/24 02:22:26;;;;;;;76.13;31.70;;;;;;;1.56;100.00;100088.03;5051689;28;20036;-85
2022/11/24 02:25:32;;;;;;;77.47;34.27;;;;;;;1.61;100.00;100098.47;5031894;28;20028;-85
2022/11/24 02:27:59;;;;;;;74.65;31.92;;;;;;;1.49;100.00;100099.25;5020804;28;20053;-83
2022/11/24 02:30:26;;;;;;;74.27;31.17;;;;;;;1.54;100.00;100099.28;5026528;28;20086;-83
2022/11/24 02:32:53;;;;;;;72.67;31.50;;;;;;;1.55;100.00;100106.25;5054372;28;20037;-83
2022/11/24 02:35:20;;;;;;;74.57;33.43;;;;;;;1.56;100.00;100106.25;5052278;28;20037;-83
2022/11/24 02:37:47;;;;;;;71.33;31.40;;;;;;;1.61;100.00;100111.50;5037129;28;20139;-83
2022/11/24 02:40:15;;;;;;;73.63;31.30;;;;;;;1.55;100.00;100112.31;5051834;28;20042;-84
2022/11/24 02:42:44;;;;;;;76.40;34.10;;;;;;;1.71;100.00;100122.84;5062478;28;20090;-85
2022/11/24 02:45:11;;;;;;;75.93;31.77;;;;;;;1.52;100.00;100121.84;5037499;28;20036;-84
2022/11/24 02:47:37;;;;;;;71.80;33.13;;;;;;;1.52;100.00;100127.94;5032608;28;20040;-84
2022/11/24 02:50:05;;;;;;;78.10;33.20;;;;;;;1.60;100.00;100125.38;5036787;28;20501;-85
2022/11/24 02:52:31;;;;;;;74.93;33.13;;;;;;;1.64;100.00;100128.00;5054190;28;20048;-84
2022/11/24 02:54:58;;;;;;;76.33;32.80;;;;;;;1.65;100.00;100126.25;5036476;28;20486;-85
2022/11/24 02:57:25;;;;;;;69.80;32.60;;;;;;;1.52;100.00;100127.94;5035628;28;20044;-84
2022/11/24 02:59:51;;;;;;;72.57;31.47;;;;;;;1.55;100.00;100122.72;5051365;28;20040;-83
2022/11/24 03:02:18;;;;;;;75.53;32.20;;;;;;;1.55;100.00;100133.13;5031563;28;20266;-84
2022/11/24 03:04:44;;;;;;;81.90;34.23;;;;;;;1.74;100.00;100120.25;5047115;28;20032;-84
2022/11/24 03:07:11;;;;;;;77.73;32.30;;;;;;;1.77;100.00;100120.28;5051727;28;20410;-83
2022/11/24 03:09:38;;;;;;;65.90;29.97;;;;;;;1.77;100.00;100120.28;5037572;28;20064;-83
2022/11/24 03:12:05;;;;;;;66.23;30.57;;;;;;;1.70;100.00;100119.38;5054726;28;20059;-85
2022/11/24 03:14:32;;;;;;;58.97;29.53;;;;;;;1.67;100.00;100121.94;5018319;28;20029;-83
2022/11/24 03:16:59;;;;;;;68.27;30.67;;;;;;;1.68;100.00;100126.28;5037572;28;20481;-83
2022/11/24 03:19:25;;;;;;;66.37;30.33;;;;;;;1.72;100.00;100111.56;5037463;28;20048;-84
2022/11/24 03:21:52;;;;;;;70.57;31.53;;;;;;;1.61;100.00;100117.56;5069336;28;20044;-83
2022/11/24 03:24:19;;;;;;;71.87;31.83;;;;;;;1.66;100.00;100117.59;5037165;28;20166;-84
2022/11/24 03:26:45;;;;;;;70.00;31.40;;;;;;;1.64;100.00;100129.72;5053273;28;20370;-83
2022/11/24 03:29:12;;;;;;;72.83;31.70;;;;;;;1.54;100.00;100118.38;5053652;28;20071;-83
2022/11/24 03:31:39;;;;;;;65.67;32.17;;;;;;;1.72;100.00;100124.59;5045283;28;20043;-82
2022/11/24 03:34:05;;;;;;;64.60;30.53;;;;;;;1.63;100.00;100126.25;5037783;28;20090;-84
2022/11/24 03:36:32;;;;;;;64.87;29.27;;;;;;;1.63;100.00;100118.44;5026817;28;20486;-83
2022/11/24 03:38:59;;;;;;;63.33;27.27;;;;;;;1.72;100.00;100132.38;5036318;28;20056;-83
2022/11/24 03:41:25;;;;;;;69.93;27.73;;;;;;;1.60;100.00;100128.84;5049560;28;20041;-84
2022/11/24 03:43:52;;;;;;;64.97;28.07;;;;;;;1.54;100.00;100130.53;5033366;28;20110;-84
2022/11/24 03:46:19;;;;;;;84.47;28.97;;;;;;;1.37;100.00;100126.06;5032764;28;20037;-83
2022/11/24 03:48:45;;;;;;;64.40;27.13;;;;;;;1.43;100.00;100125.25;5017862;28;20517;-84
2022/11/24 03:51:12;;;;;;;57.30;27.20;;;;;;;1.44;100.00;100127.00;5037227;28;20098;-83
2022/11/24 03:53:39;;;;;;;71.27;29.53;;;;;;;1.48;100.00;100130.47;5037423;28;20074;-83
2022/11/24 03:56:05;;;;;;;64.37;27.20;;;;;;;1.41;100.00;100138.22;5015788;28;20122;-83
2022/11/24 03:58:32;;;;;;;70.13;27.23;;;;;;;1.39;100.00;100134.75;5035645;28;20048;-83
2022/11/24 04:00:59;;;;;;;59.03;28.27;;;;;;;1.50;100.00;100133.97;5050242;28;20037;-83
2022/11/24 04:03:25;;;;;;;56.67;26.00;;;;;;;1.64;100.00;100146.22;5026362;28;20098;-84
2022/11/24 04:05:52;;;;;;;63.10;27.90;;;;;;;1.51;100.00;100146.97;5036784;28;20106;-84
2022/11/24 04:08:19;;;;;;;64.67;29.07;;;;;;;1.41;100.00;100143.44;5054266;28;20044;-83
2022/11/24 04:10:51;;;;;;;58.70;26.60;;;;;;;1.37;100.00;100139.06;5037125;28;20044;-83
2022/11/24 04:13:19;;;;;;;62.20;27.27;;;;;;;1.34;100.00;100161.59;5052096;28;20063;-84
2022/11/24 04:15:46;;;;;;;67.50;28.80;;;;;;;1.46;100.00;100173.84;5036364;28;20467;-85
2022/11/24 04:18:13;;;;;;;58.53;26.87;;;;;;;1.31;100.00;100170.25;5047841;28;20444;-84
2022/11/24 04:20:40;;;;;;;68.83;30.30;;;;;;;1.37;100.00;100159.91;5049728;28;20128;-83
2022/11/24 04:23:08;;;;;;;63.20;29.63;;;;;;;1.26;100.00;100173.66;5010914;28;20496;-84
2022/11/24 04:25:34;;;;;;;63.73;28.00;;;;;;;1.28;100.00;100171.97;5036321;28;20040;-84
2022/11/24 04:28:03;;;;;;;66.73;28.07;;;;;;;1.23;100.00;100165.84;5033128;28;20041;-84
2022/11/24 04:30:30;;;;;;;67.20;29.60;;;;;;;1.29;100.00;100163.28;5049833;28;20128;-84
2022/11/24 04:32:56;;;;;;;61.37;31.27;;;;;;;1.29;100.00;100160.69;5053504;28;20036;-84
2022/11/24 04:35:23;;;;;;;62.13;26.80;;;;;;;1.26;100.00;100169.34;5035694;28;20040;-85
2022/11/24 04:37:49;;;;;;;61.90;27.93;;;;;;;1.36;100.00;100163.38;5033177;28;20390;-83
2022/11/24 04:40:16;;;;;;;61.70;28.07;;;;;;;1.56;100.00;100173.94;5052794;28;20047;-83
2022/11/24 04:42:43;;;;;;;58.10;26.70;;;;;;;1.42;100.00;100165.13;5038399;28;20044;-85
2022/11/24 04:45:10;;;;;;;55.40;24.50;;;;;;;1.34;100.00;100170.25;5038424;28;20037;-84
2022/11/24 04:47:37;;;;;;;63.87;28.23;;;;;;;1.46;100.00;100179.06;5032282;28;20394;-83
2022/11/24 04:50:06;;;;;;;66.70;27.73;;;;;;;1.47;100.00;100180.78;5036759;28;20049;-84
2022/11/24 04:52:33;;;;;;;55.60;25.70;;;;;;;1.41;100.00;100186.81;5069185;28;20501;-84
2022/11/24 04:55:00;;;;;;;65.87;26.93;;;;;;;1.34;100.00;100191.09;5085654;28;20485;-84
2022/11/24 04:57:26;;;;;;;54.13;26.17;;;;;;;1.39;100.00;100197.22;5031880;28;20043;-84
2022/11/24 04:59:53;;;;;;;60.33;27.63;;;;;;;1.45;100.00;100198.13;5052273;28;20044;-85
2022/11/24 05:02:21;;;;;;;58.60;27.20;;;;;;;1.47;100.00;100192.09;5032657;28;20041;-85
2022/11/24 05:04:47;;;;;;;58.90;26.67;;;;;;;1.35;100.00;100184.19;5024179;28;20153;-84
2022/11/24 05:07:15;;;;;;;57.07;26.60;;;;;;;1.40;100.00;100195.47;5031541;28;20041;-84
2022/11/24 05:12:31;;;;;;;57.33;26.43;;;;;;;1.36;100.00;100193.72;5054555;28;20053;-84
2022/11/24 05:14:58;;;;;;;67.37;28.60;;;;;;;1.40;100.00;100198.09;5054461;28;20029;-84
2022/11/24 05:17:29;;;;;;;60.80;24.97;;;;;;;1.44;100.00;100189.47;5056782;28;20055;-84
2022/11/24 05:19:56;;;;;;;59.50;27.10;;;;;;;1.41;100.00;100194.63;5057300;28;20048;-83
2022/11/24 05:22:23;;;;;;;57.27;26.57;;;;;;;1.66;100.00;100200.91;5059291;28;20098;-84
2022/11/24 05:24:50;;;;;;;57.27;26.27;;;;;;;1.42;100.00;100199.84;5040931;28;20451;-84
2022/11/24 05:27:17;;;;;;;56.57;25.90;;;;;;;1.53;100.00;100199.94;5040749;28;20055;-84
2022/11/24 05:29:43;;;;;;;67.83;25.73;;;;;;;1.34;100.00;100195.41;5059912;28;20036;-84
2022/11/24 05:32:10;;;;;;;56.07;24.40;;;;;;;1.27;100.00;100207.53;5040038;28;20047;-83
2022/11/24 05:34:37;;;;;;;66.37;25.67;;;;;;;1.24;100.00;100201.41;5035970;28;20416;-85
2022/11/24 05:37:03;;;;;;;57.03;25.20;;;;;;;1.48;100.00;100205.97;5033466;28;20440;-83
2022/11/24 05:39:34;;;;;;;60.63;25.20;;;;;;;1.39;100.00;100212.84;5025057;28;20048;-85
2022/11/24 05:42:39;;;;;;;64.43;25.83;;;;;;;1.36;100.00;100222.34;5039392;28;20405;-84
2022/11/24 05:44:49;;;;;;;53.67;25.50;;;;;;;1.25;100.00;100224.81;5059884;28;20149;-84
2022/11/24 05:47:16;;;;;;;52.33;23.60;;;;;;;1.31;100.00;100237.91;5052552;28;20409;-84
2022/11/24 05:49:43;;;;;;;58.53;24.17;;;;;;;1.37;100.00;100242.31;5051603;28;20052;-84
2022/11/24 05:52:10;;;;;;;54.93;24.63;;;;;;;1.37;100.00;100242.31;5036304;28;20524;-85
2022/11/24 05:54:36;;;;;;;56.60;25.50;;;;;;;1.37;100.00;100237.97;5060054;28;20454;-83
2022/11/24 05:57:04;;;;;;;56.30;25.13;;;;;;;1.49;100.00;100239.81;5048658;28;20067;-85
2022/11/24 05:59:30;;;;;;;55.37;26.10;;;;;;;1.40;100.00;100234.53;5034591;28;20139;-83
2022/11/24 06:01:57;;;;;;;56.93;25.53;;;;;;;1.33;100.00;100235.31;5056024;28;20036;-83
2022/11/24 06:04:24;;;;;;;49.00;22.80;;;;;;;1.29;100.00;100244.84;5069316;28;20043;-84
2022/11/24 06:06:51;;;;;;;54.37;25.07;;;;;;;1.38;100.00;100247.53;5052724;28;20048;-83
2022/11/24 06:09:18;;;;;;;51.70;23.80;;;;;;;1.23;100.00;100255.16;5036088;28;20048;-83
2022/11/24 06:11:46;;;;;;;50.83;23.23;;;;;;;1.38;100.00;100259.66;5054426;28;20044;-83
2022/11/24 06:14:13;;;;;;;54.40;23.93;;;;;;;1.37;100.00;100268.34;5056974;28;20045;-83
2022/11/24 06:16:40;;;;;;;64.40;26.60;;;;;;;1.29;100.00;100265.66;5056081;28;20158;-84
2022/11/24 06:19:08;;;;;;;52.47;24.03;;;;;;;1.27;100.00;100272.59;5035689;28;20557;-83
2022/11/24 06:21:35;;;;;;;52.50;22.13;;;;;;;1.35;100.00;100281.34;5051873;28;20047;-83
2022/11/24 06:24:01;;;;;;;53.57;23.50;;;;;;;1.23;100.00;100276.00;5034359;28;20041;-84
2022/11/24 06:26:28;;;;;;;45.40;21.47;;;;;;;1.25;100.00;100279.47;5055626;28;20070;-85
2022/11/24 06:28:55;;;;;;;50.23;22.10;;;;;;;1.23;100.00;100270.78;5039210;28;20090;-83
2022/11/24 06:31:22;;;;;;;48.07;21.60;;;;;;;1.25;100.00;100278.59;5067250;28;20037;-83
2022/11/24 06:33:48;;;;;;;52.70;23.70;;;;;;;1.36;100.00;100279.63;5038857;28;20041;-85
2022/11/24 06:36:15;;;;;;;53.67;22.47;;;;;;;1.40;100.00;100283.97;5020948;28;20032;-84
2022/11/24 06:38:42;;;;;;;46.10;21.97;;;;;;;1.40;100.00;100287.44;5052005;28;20076;-83
2022/11/24 06:41:11;;;;;;;49.37;21.50;;;;;;;1.34;100.00;100284.78;5016846;28;20048;-84
2022/11/24 06:43:38;;;;;;;48.13;22.40;;;;;;;1.40;100.00;100292.66;5070302;28;20457;-82
2022/11/24 06:46:05;;;;;;;49.43;23.00;;;;;;;1.33;100.00;100293.44;5071533;28;20040;-82
2022/11/24 06:48:32;;;;;;;49.60;21.80;;;;;;;1.47;100.00;100298.81;5058158;28;20039;-82
2022/11/24 06:51:01;;;;;;;45.10;21.77;;;;;;;1.34;100.00;100294.31;5060296;28;20037;-85
2022/11/24 06:53:31;;;;;;;41.13;19.63;;;;;;;1.26;100.00;100293.34;5121482;22;20100;-82
2022/11/24 06:55:59;;;;;;;49.00;23.37;;;;;;;1.30;100.00;100297.75;5068087;22;20048;-84
2022/11/24 06:58:26;;;;;;;49.50;22.60;;;;;;;1.32;100.00;100302.13;5059902;28;20040;-85
2022/11/24 07:00:53;;;;;;;47.80;20.80;;;;;;;1.33;100.00;100295.16;5090994;27;20050;-84
2022/11/24 07:03:20;;;;;;;43.43;21.87;;;;;;;1.38;100.00;100301.31;5080100;27;20590;-83
2022/11/24 07:05:46;;;;;;;46.90;21.83;;;;;;;1.31;100.00;100299.50;5080658;27;20403;-84
2022/11/24 07:08:14;;;;;;;46.13;20.83;;;;;;;1.43;100.00;100304.84;5081096;28;20569;-83
2022/11/24 07:10:43;;;;;;;46.50;22.27;;;;;;;1.32;100.00;100306.44;5082266;27;20126;-84
2022/11/24 07:13:10;;;;;;;42.67;20.03;;;;;;;1.32;100.00;100302.13;5090504;28;20046;-84
2022/11/24 07:15:36;;;;;;;49.07;21.67;;;;;;;1.51;100.00;100303.16;5089161;27;20043;-83
2022/11/24 07:18:03;;;;;;;49.87;23.03;;;;;;;1.41;100.00;100310.00;5073580;27;20043;-85
2022/11/24 07:20:30;;;;;;;46.60;20.87;;;;;;;1.45;100.00;100310.06;5092341;27;20442;-84
2022/11/24 07:22:57;;;;;;;45.00;21.43;;;;;;;1.40;100.00;100320.41;5080525;27;20089;-86
2022/11/24 07:25:24;;;;;;;42.50;20.83;;;;;;;1.34;100.00;100315.13;5093368;27;20042;-84
2022/11/24 07:27:57;;;;;;;47.30;22.00;;;;;;;1.44;100.00;100322.22;5086427;27;20055;-85
2022/11/24 07:30:25;;;;;;;46.53;19.73;;;;;;;1.60;100.00;100313.72;5074086;27;20088;-85
2022/11/24 07:32:58;;;;;;;42.37;19.80;;;;;;;1.55;100.00;100319.72;5091889;27;20108;-85
2022/11/24 07:35:24;;;;;;;46.37;19.73;;;;;;;1.48;100.00;100321.38;5147595;22;20040;-79
2022/11/24 07:37:55;;;;;;;41.13;19.40;;;;;;;1.59;100.00;100327.56;5075489;28;20054;-80
2022/11/24 07:40:23;;;;;;;42.67;19.47;;;;;;;1.59;100.00;100331.91;5077870;28;20680;-79
2022/11/24 07:42:50;;;;;;;43.70;20.27;;;;;;;1.49;100.00;100335.25;5092405;28;20047;-79
2022/11/24 07:45:17;;;;;;;41.47;20.10;;;;;;;1.61;100.00;100328.47;5081067;28;20404;-78
2022/11/24 07:47:43;;;;;;;46.37;20.00;;;;;;;1.64;100.00;100336.31;5084379;28;20036;-79
2022/11/24 07:50:11;;;;;;;48.07;19.87;;;;;;;1.62;100.00;100337.16;5092638;28;20112;-78
2022/11/24 07:52:38;;;;;;;46.47;20.47;;;;;;;1.66;100.00;100331.97;5066550;28;20040;-78
2022/11/24 07:55:06;;;;;;;41.27;18.60;;;;;;;1.54;100.00;100350.09;5084162;28;20093;-79
2022/11/24 07:57:33;;;;;;;42.87;20.37;;;;;;;1.64;100.00;100340.63;5088970;28;20040;-79
2022/11/24 07:59:59;;;;;;;45.30;22.23;;;;;;;1.60;100.00;100342.34;5068949;28;20069;-79
2022/11/24 08:02:26;;;;;;;49.93;21.27;;;;;;;1.70;100.00;100340.72;5067512;28;20039;-80
2022/11/24 08:04:53;;;;;;;46.73;20.10;;;;;;;1.68;100.00;100343.31;5059924;28;20109;-78
2022/11/24 08:07:21;;;;;;;52.03;22.20;;;;;;;1.35;100.00;100337.72;5076634;28;20043;-78
2022/11/24 08:09:49;;;;;;;43.23;19.83;;;;;;;1.42;100.00;100343.00;5063401;28;20043;-78
2022/11/24 08:12:20;;;;;;;38.93;19.57;;;;;;;1.43;100.00;100346.50;5049056;28;20058;-78
2022/11/24 08:14:48;;;;;;;39.13;18.07;;;;;;;1.45;100.00;100344.78;5077269;28;20036;-80
2022/11/24 08:17:18;;;;;;;44.20;20.80;;;;;;;1.49;100.00;100350.88;5073122;28;20071;-78
2022/11/24 08:19:45;;;;;;;42.27;19.87;;;;;;;1.49;100.00;100346.53;5079118;28;20082;-81
2022/11/24 08:22:12;;;;;;;43.97;20.50;;;;;;;1.61;100.00;100351.03;5072189;28;20050;-80
2022/11/24 08:24:44;;;;;;;41.67;20.33;;;;;;;1.61;100.00;100353.63;5081117;28;20039;-81
2022/11/24 08:27:12;;;;;;;46.47;20.70;;;;;;;1.74;100.00;100357.22;5078734;28;20063;-79
2022/11/24 08:29:39;;;;;;;42.43;19.27;;;;;;;1.76;100.00;100356.38;5077156;28;20047;-81
2022/11/24 08:32:06;;;;;;;43.97;20.00;;;;;;;1.83;100.00;100352.09;5060720;28;20043;-80
2022/11/24 08:34:33;;;;;;;45.57;21.10;;;;;;;1.81;100.00;100356.44;5081595;28;20047;-80
2022/11/24 08:37:02;;;;;;;42.30;21.27;;;;;;;1.84;100.00;100354.72;5082961;28;20093;-80
2022/11/24 08:39:29;;;;;;;51.10;22.83;;;;;;;1.87;100.00;100353.91;5096604;28;20089;-82
2022/11/24 08:41:56;;;;;;;45.03;20.93;;;;;;;1.91;100.00;100350.44;5047133;28;20050;-81
2022/11/24 08:44:23;;;;;;;41.77;20.03;;;;;;;1.89;100.00;100360.00;5052087;28;20046;-81
2022/11/24 08:46:52;;;;;;;39.07;18.73;;;;;;;1.92;100.00;100365.22;5081457;28;20190;-79
2022/11/24 08:49:20;;;;;;;43.10;20.73;;;;;;;2.00;100.00;100362.69;5073948;28;20044;-79
2022/11/24 08:51:48;;;;;;;43.83;20.63;;;;;;;1.97;100.00;100360.94;5070931;28;20036;-80
2022/11/24 08:54:17;;;;;;;41.53;20.43;;;;;;;1.93;100.00;100373.06;5089599;28;20399;-80
2022/11/24 08:56:44;;;;;;;40.20;19.97;;;;;;;1.97;100.00;100373.97;5065605;28;20042;-79
2022/11/24 08:59:12;;;;;;;40.23;19.30;;;;;;;2.02;100.00;100372.28;5085021;28;20492;-79
2022/11/24 09:01:40;;;;;;;40.90;19.77;;;;;;;2.01;100.00;100378.34;5092373;28;20032;-79
2022/11/24 09:04:07;;;;;;;44.73;20.17;;;;;;;2.06;100.00;100389.69;5089748;28;20581;-78
2022/11/24 09:06:34;;;;;;;41.57;19.47;;;;;;;2.11;100.00;100390.63;5077103;28;20546;-79
2022/11/24 09:09:00;;;;;;;42.40;19.67;;;;;;;2.12;100.00;100401.91;5082056;28;20054;-80
2022/11/24 09:11:28;;;;;;;36.40;18.50;;;;;;;2.13;100.00;100394.09;5093207;28;20048;-79
2022/11/24 09:13:54;;;;;;;36.90;18.70;;;;;;;2.10;100.00;100396.69;5090103;28;20078;-79
2022/11/24 09:16:24;;;;;;;35.13;19.17;;;;;;;2.08;100.00;100401.00;5081242;28;20074;-80
2022/11/24 09:19:00;;;;;;;33.63;17.53;;;;;;;2.13;100.00;100390.63;5082989;28;20051;-80
2022/11/24 09:21:28;;;;;;;41.97;19.93;;;;;;;2.12;100.00;100392.34;5071591;28;20043;-79
2022/11/24 09:23:55;;;;;;;37.70;18.17;;;;;;;2.11;100.00;100395.81;5085955;28;20071;-79
2022/11/24 09:26:24;;;;;;;40.07;18.00;;;;;;;2.20;100.00;100384.63;5058485;28;20032;-79
2022/11/24 09:28:55;;;;;;;41.67;20.70;;;;;;;2.13;100.00;100388.03;5093086;28;20095;-79
2022/11/24 09:31:28;;;;;;;38.10;18.53;;;;;;;2.17;100.00;100395.84;5104942;28;20118;-80
2022/11/24 09:33:55;;;;;;;38.00;18.05;;;;;;;2.25;100.00;100389.00;5083279;28;20047;-81
2022/11/24 09:36:23;;;;;;;39.67;20.07;;;;;;;2.40;100.00;100400.41;5078638;28;20032;-80
2022/11/24 09:38:49;;;;;;;41.47;18.40;;;;;;;2.29;100.00;100389.91;5081044;28;20046;-80
2022/11/24 09:41:17;;;;;;;39.23;20.03;;;;;;;2.07;100.00;100396.63;5086418;28;20419;-80
2022/11/24 09:44:16;;;;;;;40.90;19.73;;;;;;;2.31;100.00;100389.91;5086037;28;20063;-79
2022/11/24 09:47:04;;;;;;;41.37;21.47;;;;;;;2.18;100.00;100397.59;5082423;28;20036;-80
2022/11/24 09:49:52;;;;;;;49.57;25.40;;;;;;;2.35;100.00;100399.50;5084269;28;20062;-80
2022/11/24 09:52:59;;;;;;;60.10;32.53;;;;;;;2.37;100.00;100405.63;5067895;28;20044;-79
2022/11/24 09:55:36;;;;;;;42.20;20.70;;;;;;;2.32;100.00;100413.38;5084085;28;20035;-80
2022/11/24 09:58:41;;;;;;;40.90;20.93;;;;;;;2.32;100.00;100409.91;5105151;28;20032;-80
2022/11/24 10:01:36;;;;;;;44.53;21.27;;;;;;;2.30;100.00;100419.44;5097464;28;20436;-79
2022/11/24 10:04:13;;;;;;;46.00;27.73;;;;;;;2.37;100.00;100423.88;5060436;28;20043;-79
2022/11/24 10:07:00;;;;;;;45.80;22.13;;;;;;;2.41;100.00;100423.00;5085492;28;20050;-80
2022/11/24 10:09:36;;;;;;;37.47;20.40;;;;;;;2.43;100.00;100418.69;5051496;28;20040;-79
2022/11/24 10:12:27;;;;;;;47.23;22.00;;;;;;;2.52;100.00;100424.88;5104290;28;20063;-80
2022/11/24 10:15:09;;;;;;;39.60;18.47;;;;;;;2.52;100.00;100429.19;5102100;28;20096;-80
2022/11/24 10:18:10;;;;;;;37.77;18.63;;;;;;;2.49;100.00;100429.16;5086565;28;20072;-79
2022/11/24 10:21:01;;;;;;;43.23;20.73;;;;;;;2.57;100.00;100434.44;5100551;28;20054;-78
2022/11/24 10:23:57;;;;;;;43.73;21.47;;;;;;;2.70;100.00;100423.28;5100831;28;20035;-81
2022/11/24 10:26:34;;;;;;;41.93;21.37;;;;;;;2.70;100.00;100426.75;5073548;28;20055;-79
2022/11/24 10:29:21;;;;;;;37.10;19.37;;;;;;;2.82;100.00;100423.34;5074935;28;20044;-79
2022/11/24 10:31:51;;;;;;;45.53;21.77;;;;;;;2.87;100.00;100433.84;5059539;28;20417;-80
2022/11/24 10:34:30;;;;;;;39.23;18.47;;;;;;;2.86;100.00;100434.66;5077582;28;20130;-79
2022/11/24 10:37:02;;;;;;;39.43;18.27;;;;;;;2.93;100.00;100429.50;5092221;28;20028;-78
2022/11/24 10:39:40;;;;;;;43.27;20.20;;;;;;;2.99;100.00;100432.16;5070826;28;20678;-79
2022/11/24 10:42:29;;;;;;;36.50;18.63;;;;;;;3.05;100.00;100432.22;5093735;28;20538;-79
2022/11/24 10:45:16;;;;;;;84.43;36.57;;;;;;;3.01;100.00;100437.38;5069521;28;20284;-81
2022/11/24 10:47:44;;;;;;;50.87;23.47;;;;;;;3.14;100.00;100440.97;5061846;28;20067;-78
2022/11/24 10:50:22;;;;;;;38.33;19.77;;;;;;;2.91;100.00;100438.19;5079852;28;20047;-79
2022/11/24 10:53:13;;;;;;;40.50;18.87;;;;;;;2.95;100.00;100437.38;5071616;28;20067;-79
2022/11/24 10:55:56;;;;;;;38.10;18.97;;;;;;;3.08;100.00;100426.13;5082594;28;20051;-79
2022/11/24 10:58:28;;;;;;;28.77;16.53;;;;;;;2.99;100.00;100433.91;5091808;28;20058;-78
2022/11/24 11:01:12;;;;;;;34.97;17.30;;;;;;;3.12;100.00;100420.06;5097873;28;20070;-79
2022/11/24 11:03:50;;;;;;;35.17;18.67;;;;;;;3.25;100.00;100427.09;5096640;28;20040;-78
2022/11/24 11:06:21;;;;;;;38.13;19.67;;;;;;;3.18;100.00;100434.88;5071950;28;20046;-78
2022/11/24 11:08:48;;;;;;;34.07;18.83;;;;;;;3.29;100.00;100441.94;5084235;28;20039;-80
2022/11/24 11:11:26;;;;;;;41.87;18.50;;;;;;;3.38;100.00;100448.94;5073745;28;20062;-80
2022/11/24 11:14:01;;;;;;;33.83;17.93;;;;;;;3.41;100.00;100448.94;5070857;28;20044;-81
2022/11/24 11:16:49;;;;;;;37.43;18.77;;;;;;;3.26;100.00;100446.25;5073704;28;20042;-81
2022/11/24 11:19:36;;;;;;;36.27;18.17;;;;;;;3.28;100.00;100442.78;5058214;28;20040;-81
2022/11/24 11:22:29;;;;;;;40.10;19.73;;;;;;;3.28;100.00;100441.91;5080527;28;20039;-80
2022/11/24 11:25:11;;;;;;;33.37;17.47;;;;;;;3.38;100.00;100439.38;5073731;28;20044;-81